Time;durP1;ratioP1;P1;durP2;ratioP2;P2;SDS_P1;SDS_P2;PMS_P1;PMS_P2;Temp;Humidity;BMP_temperature;BMP_pressure;BME280_temperature;BME280_humidity;BME280_pressure;Samples;Min_cycle;Max_cycle;Signal;HPM_P1;HPM_P2
2022/09/29 05:42:40;;;;;;;14.13;8.32;;;6.80;99.90;;;;;;2975753;29;22841;-65
2022/09/29 05:45:09;;;;;;;15.63;8.32;;;6.80;99.90;;;;;;4916536;29;20077;-69
2022/09/29 05:47:35;;;;;;;14.27;7.65;;;6.80;99.90;;;;;;4928243;29;20095;-68
2022/09/29 05:50:02;;;;;;;12.38;8.80;;;6.80;99.90;;;;;;4925407;29;20047;-68
2022/09/29 05:52:28;;;;;;;12.60;8.75;;;6.80;99.90;;;;;;4913398;29;20051;-68
2022/09/29 05:54:54;;;;;;;14.00;8.95;;;6.80;99.90;;;;;;4923632;29;20473;-67
2022/09/29 05:57:19;;;;;;;12.52;7.85;;;6.70;99.90;;;;;;4913577;29;20058;-68
2022/09/29 05:59:45;;;;;;;12.88;8.57;;;6.70;99.90;;;;;;4912487;29;20060;-68
2022/09/29 06:02:12;;;;;;;12.80;8.70;;;6.70;99.90;;;;;;4915527;29;20055;-68
2022/09/29 06:04:37;;;;;;;12.75;8.90;;;6.70;99.90;;;;;;4930802;29;20137;-68
2022/09/29 06:07:03;;;;;;;19.13;10.32;;;6.70;99.90;;;;;;4914200;29;20079;-68
2022/09/29 06:09:29;;;;;;;18.02;9.10;;;6.70;99.90;;;;;;4913802;29;20839;-68
2022/09/29 06:11:54;;;;;;;14.32;8.82;;;6.70;99.90;;;;;;4920452;29;20432;-68
2022/09/29 06:14:20;;;;;;;15.15;9.00;;;6.70;99.90;;;;;;4913185;29;20059;-68
2022/09/29 06:16:46;;;;;;;14.73;9.23;;;6.80;99.90;;;;;;4914658;29;20052;-68
2022/09/29 06:19:12;;;;;;;13.15;8.23;;;6.70;99.90;;;;;;4912471;29;20052;-68
2022/09/29 06:21:38;;;;;;;14.82;9.88;;;6.70;99.90;;;;;;4943972;29;20078;-67
2022/09/29 06:24:06;;;;;;;16.77;10.18;;;6.70;99.90;;;;;;4911982;29;20060;-68
2022/09/29 06:26:31;;;;;;;19.55;11.40;;;6.70;99.90;;;;;;4923509;29;20059;-68
2022/09/29 06:28:57;;;;;;;16.58;9.95;;;6.70;99.90;;;;;;4908920;29;20351;-67
2022/09/29 06:31:24;;;;;;;17.45;10.73;;;6.80;99.90;;;;;;4940710;29;20051;-67
2022/09/29 06:33:50;;;;;;;17.75;10.85;;;6.80;99.90;;;;;;4940649;29;20051;-68
2022/09/29 06:39:10;;;;;;;17.75;11.13;;;6.90;99.90;;;;;;4912843;29;20815;-68
2022/09/29 06:41:36;;;;;;;14.27;10.18;;;7.00;99.90;;;;;;4912078;29;20048;-68
2022/09/29 06:44:02;;;;;;;13.88;9.90;;;7.00;99.90;;;;;;4943441;29;20055;-69
2022/09/29 06:46:28;;;;;;;18.67;12.10;;;7.00;99.90;;;;;;4916391;29;20111;-69
2022/09/29 06:48:54;;;;;;;21.98;13.43;;;7.10;99.90;;;;;;4945224;29;20163;-69
2022/09/29 06:51:23;;;;;;;22.25;13.15;;;7.10;99.90;;;;;;4914797;29;20053;-68
2022/09/29 06:53:49;;;;;;;23.45;13.27;;;7.20;99.90;;;;;;4910477;29;20489;-68
2022/09/29 06:56:16;;;;;;;17.60;12.10;;;7.20;99.90;;;;;;4942408;28;20054;-68
2022/09/29 06:58:41;;;;;;;21.65;13.82;;;7.30;99.90;;;;;;4940768;28;20047;-68
2022/09/29 07:01:08;;;;;;;19.52;12.93;;;7.30;99.90;;;;;;4918889;29;20127;-69
2022/09/29 07:03:34;;;;;;;21.67;13.93;;;7.30;99.90;;;;;;4915805;29;20048;-68
2022/09/29 07:06:04;;;;;;;23.42;15.15;;;7.40;99.90;;;;;;4911429;29;20055;-68
2022/09/29 07:08:30;;;;;;;23.48;13.75;;;7.40;99.90;;;;;;4915256;29;20075;-69
2022/09/29 07:10:56;;;;;;;21.65;14.80;;;7.50;99.90;;;;;;4924933;29;20056;-68
2022/09/29 07:13:22;;;;;;;21.85;13.98;;;7.60;99.90;;;;;;4927894;29;20198;-68
2022/09/29 07:15:48;;;;;;;21.10;15.35;;;7.60;99.90;;;;;;4943791;29;20536;-68
2022/09/29 07:18:14;;;;;;;23.45;15.43;;;7.70;99.90;;;;;;4916160;29;20047;-69
2022/09/29 07:20:39;;;;;;;25.50;15.48;;;7.80;99.90;;;;;;4927095;29;20106;-68
2022/09/29 07:23:07;;;;;;;24.45;15.65;;;7.80;99.90;;;;;;4927855;29;20131;-69
2022/09/29 07:25:33;;;;;;;23.90;16.35;;;7.90;99.90;;;;;;4943360;29;20059;-68
2022/09/29 07:27:59;;;;;;;28.27;18.20;;;8.00;99.90;;;;;;4926475;29;20119;-68
2022/09/29 07:30:26;;;;;;;27.10;17.60;;;8.00;99.90;;;;;;4927687;29;20071;-68
2022/09/29 07:32:55;;;;;;;37.45;19.38;;;8.10;99.90;;;;;;4926776;29;20050;-68
2022/09/29 07:35:21;;;;;;;31.92;20.38;;;8.20;99.90;;;;;;4927543;29;20608;-68
2022/09/29 07:37:51;;;;;;;27.98;18.77;;;8.30;99.90;;;;;;4915572;29;20098;-69
2022/09/29 07:40:17;;;;;;;32.38;19.27;;;8.30;99.90;;;;;;4910689;29;20527;-68
2022/09/29 07:42:43;;;;;;;34.50;21.38;;;8.40;99.90;;;;;;4927414;29;20051;-68
2022/09/29 07:45:09;;;;;;;55.42;32.38;;;8.50;99.90;;;;;;4941923;29;20052;-68
2022/09/29 07:47:35;;;;;;;45.80;26.83;;;8.60;99.90;;;;;;4915890;29;20067;-68
2022/09/29 07:50:00;;;;;;;43.28;23.60;;;8.60;99.90;;;;;;4933670;29;20380;-68
2022/09/29 07:52:26;;;;;;;35.60;22.23;;;8.70;99.90;;;;;;4916836;29;20583;-69
2022/09/29 07:54:52;;;;;;;35.40;23.25;;;8.80;99.90;;;;;;4918310;29;20052;-68
2022/09/29 07:57:17;;;;;;;35.65;22.05;;;8.80;99.90;;;;;;4942570;29;20052;-68
2022/09/29 07:59:43;;;;;;;37.15;23.77;;;8.90;99.90;;;;;;4916511;29;20047;-69
2022/09/29 08:02:09;;;;;;;40.50;23.00;;;9.00;99.90;;;;;;4915607;29;20057;-70
2022/09/29 08:04:35;;;;;;;35.47;21.77;;;9.00;99.90;;;;;;4942869;29;20105;-71
2022/09/29 08:07:00;;;;;;;35.72;20.60;;;9.10;99.90;;;;;;4917193;29;20441;-70
2022/09/29 08:09:26;;;;;;;30.55;20.95;;;9.20;99.90;;;;;;4925218;29;20481;-70
2022/09/29 08:11:52;;;;;;;34.70;21.27;;;9.30;99.90;;;;;;4931415;29;20052;-70
2022/09/29 08:14:18;;;;;;;32.08;21.38;;;9.30;99.90;;;;;;4920644;29;20055;-70
2022/09/29 08:16:45;;;;;;;31.40;20.95;;;9.40;99.90;;;;;;4923365;29;20091;-69
2022/09/29 08:19:11;;;;;;;31.00;22.02;;;9.50;99.90;;;;;;4917864;29;20060;-69
2022/09/29 08:21:37;;;;;;;33.60;20.60;;;9.60;99.90;;;;;;4926664;29;20623;-70
2022/09/29 08:24:03;;;;;;;30.90;20.75;;;9.60;99.90;;;;;;4926840;29;20044;-69
2022/09/29 08:26:31;;;;;;;28.40;19.85;;;9.70;99.90;;;;;;4942763;29;20039;-70
2022/09/29 08:28:57;;;;;;;25.13;18.23;;;9.80;99.90;;;;;;4913758;29;20056;-69
2022/09/29 08:31:23;;;;;;;29.60;17.70;;;9.80;99.90;;;;;;4914823;29;20343;-70
2022/09/29 08:33:50;;;;;;;25.70;17.25;;;9.90;99.90;;;;;;4933594;29;20044;-70
2022/09/29 08:36:16;;;;;;;25.48;17.92;;;9.90;99.90;;;;;;4927085;29;20127;-69
2022/09/29 08:38:43;;;;;;;20.58;15.48;;;10.00;99.90;;;;;;4914955;29;20043;-70
2022/09/29 08:41:33;;;;;;;25.13;17.48;;;10.00;99.90;;;;;;4941371;29;20126;-70
2022/09/29 08:44:17;;;;;;;21.13;15.75;;;10.20;99.90;;;;;;4920581;29;20051;-70
2022/09/29 08:46:54;;;;;;;20.98;14.55;;;10.20;99.90;;;;;;4941930;29;20174;-69
2022/09/29 08:49:23;;;;;;;19.42;13.70;;;10.30;99.90;;;;;;4916755;29;20051;-69
2022/09/29 08:51:54;;;;;;;18.45;13.55;;;10.30;99.90;;;;;;4916992;29;20095;-70
2022/09/29 08:54:32;;;;;;;16.95;13.05;;;10.40;99.90;;;;;;4928505;29;20099;-71
2022/09/29 08:56:59;;;;;;;17.42;13.15;;;10.40;99.90;;;;;;4914006;29;20103;-70
2022/09/29 08:59:27;;;;;;;19.48;13.18;;;10.50;99.90;;;;;;4925739;29;20048;-70
2022/09/29 09:01:59;;;;;;;19.00;13.43;;;10.50;99.90;;;;;;4925945;29;20481;-69
2022/09/29 09:04:33;;;;;;;21.35;13.80;;;10.60;99.90;;;;;;4954233;28;20135;-69
2022/09/29 09:07:05;;;;;;;17.95;13.02;;;10.70;99.90;;;;;;4936165;29;20095;-70
2022/09/29 09:09:40;;;;;;;16.20;11.57;;;10.80;99.90;;;;;;4913178;29;20048;-69
2022/09/29 09:12:28;;;;;;;17.77;11.88;;;10.80;99.90;;;;;;4945764;28;20052;-68
2022/09/29 09:15:19;;;;;;;14.57;11.55;;;10.90;99.90;;;;;;4913089;29;20175;-68
2022/09/29 09:18:00;;;;;;;16.60;11.57;;;11.00;99.90;;;;;;4913884;29;20052;-69
2022/09/29 09:20:33;;;;;;;12.15;10.02;;;11.10;99.90;;;;;;4913535;29;20473;-69
2022/09/29 09:23:23;;;;;;;15.88;12.15;;;11.20;99.90;;;;;;4913207;29;20465;-69
2022/09/29 09:25:52;;;;;;;15.18;10.48;;;11.10;99.30;;;;;;4911629;29;20110;-68
2022/09/29 09:28:33;;;;;;;13.63;10.20;;;11.20;99.30;;;;;;4929649;29;20055;-68
2022/09/29 09:31:24;;;;;;;11.40;9.68;;;11.30;98.70;;;;;;4936841;29;20534;-68
2022/09/29 09:34:01;;;;;;;12.85;10.48;;;11.50;99.20;;;;;;4920587;29;20040;-68
2022/09/29 09:36:44;;;;;;;14.35;10.40;;;11.50;99.00;;;;;;4923498;29;20044;-68
2022/09/29 09:39:15;;;;;;;14.05;10.25;;;11.60;98.80;;;;;;4931782;29;20062;-68
2022/09/29 09:41:42;;;;;;;12.32;9.35;;;11.70;99.00;;;;;;4931767;29;20060;-69
2022/09/29 09:44:24;;;;;;;11.05;9.02;;;11.90;98.10;;;;;;4930022;29;20055;-68
2022/09/29 09:46:52;;;;;;;12.45;8.40;;;12.00;97.80;;;;;;4913393;29;20556;-68
2022/09/29 09:49:27;;;;;;;15.05;10.13;;;12.00;96.60;;;;;;4930795;29;20059;-68
2022/09/29 09:52:07;;;;;;;12.25;9.30;;;12.00;96.80;;;;;;4920872;29;20568;-68
2022/09/29 09:54:49;;;;;;;10.43;8.40;;;12.00;96.60;;;;;;4908156;29;20103;-68
2022/09/29 09:57:24;;;;;;;11.70;8.68;;;12.10;97.00;;;;;;4924469;29;20052;-68
2022/09/29 10:00:09;;;;;;;12.63;7.78;;;12.10;96.80;;;;;;4959068;28;20056;-69
2022/09/29 10:02:40;;;;;;;9.85;7.18;;;12.10;96.90;;;;;;4925082;29;20040;-68
2022/09/29 10:05:11;;;;;;;10.95;8.40;;;12.20;97.00;;;;;;4923200;29;20466;-69
2022/09/29 10:07:37;;;;;;;10.02;7.70;;;12.20;96.90;;;;;;4924623;29;20056;-68
2022/09/29 10:10:03;;;;;;;10.90;7.07;;;12.20;96.70;;;;;;4927851;29;20058;-68
2022/09/29 10:12:29;;;;;;;7.78;5.90;;;12.30;96.30;;;;;;4939574;28;20126;-67
2022/09/29 10:15:17;;;;;;;9.57;5.22;;;12.60;96.60;;;;;;4939747;29;20265;-68
2022/09/29 10:17:45;;;;;;;8.35;5.65;;;12.80;95.40;;;;;;4915698;29;20044;-68
2022/09/29 10:20:11;;;;;;;7.60;4.97;;;12.90;96.20;;;;;;4924021;29;20047;-69
2022/09/29 10:22:37;;;;;;;8.40;5.78;;;13.20;95.60;;;;;;4925404;29;20081;-68
2022/09/29 10:25:19;;;;;;;7.47;6.10;;;13.30;95.00;;;;;;4915507;29;20664;-69
2022/09/29 10:27:49;;;;;;;8.02;5.82;;;13.30;95.30;;;;;;4915047;29;20055;-68
2022/09/29 10:30:36;;;;;;;7.60;5.05;;;13.50;95.10;;;;;;4928275;29;20048;-68
2022/09/29 10:33:03;;;;;;;6.22;5.03;;;13.80;95.10;;;;;;4927894;29;20158;-68
2022/09/29 10:35:33;;;;;;;6.25;4.80;;;14.00;94.10;;;;;;4921080;29;20103;-68
2022/09/29 10:38:01;;;;;;;8.77;4.40;;;14.10;94.60;;;;;;4928457;29;20051;-68
2022/09/29 10:40:26;;;;;;;7.38;4.45;;;14.30;94.50;;;;;;4949720;29;20095;-68
2022/09/29 10:42:52;;;;;;;4.40;2.83;;;14.90;94.50;;;;;;4931001;29;20090;-68
2022/09/29 10:45:25;;;;;;;5.32;4.07;;;15.70;88.90;;;;;;4931747;29;20055;-68
2022/09/29 10:47:57;;;;;;;5.10;3.78;;;16.20;86.70;;;;;;4919998;29;20110;-68
2022/09/29 10:50:25;;;;;;;5.22;3.42;;;17.20;82.60;;;;;;4924122;29;20040;-69
2022/09/29 10:52:53;;;;;;;5.32;3.35;;;18.90;73.70;;;;;;4923767;29;20047;-69
2022/09/29 10:55:31;;;;;;;4.47;3.85;;;20.90;65.60;;;;;;4934121;29;20544;-66
2022/09/29 10:58:32;;;;;;;5.53;4.10;;;21.40;59.10;;;;;;4943467;29;20433;-66
2022/09/29 11:01:15;;;;;;;6.45;4.40;;;18.80;71.00;;;;;;4929250;29;20126;-66
2022/09/29 11:03:51;;;;;;;5.15;3.92;;;17.20;75.90;;;;;;4927091;29;20130;-66
2022/09/29 11:06:46;;;;;;;5.85;3.90;;;16.10;81.00;;;;;;4925557;29;20066;-66
2022/09/29 11:09:15;;;;;;;4.65;3.60;;;15.50;83.30;;;;;;4924647;29;20646;-66
2022/09/29 11:11:46;;;;;;;7.57;3.60;;;16.30;80.90;;;;;;4926116;29;20048;-68
2022/09/29 11:14:37;;;;;;;5.00;4.07;;;19.50;65.60;;;;;;4926376;29;20075;-67
2022/09/29 11:17:22;;;;;;;5.50;4.72;;;18.20;72.50;;;;;;4931208;29;20079;-67
2022/09/29 11:19:48;;;;;;;5.60;3.85;;;19.50;68.30;;;;;;4923966;29;20548;-67
2022/09/29 11:22:47;;;;;;;4.57;3.20;;;22.10;57.30;;;;;;4937481;29;20080;-67
2022/09/29 11:25:17;;;;;;;5.78;4.18;;;23.00;53.50;;;;;;4926776;29;20055;-67
2022/09/29 11:28:01;;;;;;;4.97;3.42;;;21.50;58.30;;;;;;4931636;29;20047;-67
2022/09/29 11:30:52;;;;;;;4.75;2.70;;;19.90;61.40;;;;;;4922146;29;20051;-66
2022/09/29 11:33:35;;;;;;;4.57;3.20;;;21.80;52.80;;;;;;4913461;29;20051;-67
2022/09/29 11:36:07;;;;;;;4.20;3.35;;;21.10;56.20;;;;;;4920535;29;20339;-67
2022/09/29 11:38:41;;;;;;;4.45;3.30;;;20.30;59.70;;;;;;4942183;29;20201;-67
2022/09/29 11:41:15;;;;;;;5.88;3.72;;;19.00;65.90;;;;;;4932567;29;20110;-67
2022/09/29 11:44:04;;;;;;;4.85;4.10;;;18.00;71.80;;;;;;4915132;29;20497;-66
2022/09/29 11:46:44;;;;;;;5.25;4.20;;;17.90;74.20;;;;;;4926010;29;20115;-65
2022/09/29 11:49:38;;;;;;;4.63;3.80;;;17.50;75.30;;;;;;4946610;29;20112;-66
2022/09/29 11:52:16;;;;;;;4.50;3.85;;;17.30;74.90;;;;;;4932285;29;20047;-65
2022/09/29 11:54:51;;;;;;;5.53;4.10;;;16.90;74.60;;;;;;4914566;29;20086;-66
2022/09/29 11:57:45;;;;;;;5.85;4.32;;;16.60;76.70;;;;;;4919061;29;20056;-66
2022/09/29 12:00:11;;;;;;;7.53;4.00;;;16.30;79.20;;;;;;4859735;29;20052;-66
2022/09/29 12:03:05;;;;;;;5.00;3.85;;;16.60;79.10;;;;;;4912943;29;20516;-66
2022/09/29 12:05:58;;;;;;;4.03;2.75;;;17.50;73.30;;;;;;4943315;29;20114;-66
2022/09/29 12:08:27;;;;;;;2.75;1.60;;;18.70;68.30;;;;;;4942400;29;20102;-65
2022/09/29 12:11:10;;;;;;;3.95;2.05;;;19.60;63.00;;;;;;4915077;29;20040;-67
2022/09/29 12:13:50;;;;;;;3.67;2.10;;;20.40;59.50;;;;;;4900243;29;20130;-66
2022/09/29 12:16:21;;;;;;;3.08;2.17;;;19.90;59.80;;;;;;4915394;29;20052;-66
2022/09/29 12:18:52;;;;;;;4.68;1.77;;;18.30;67.10;;;;;;4910061;29;20052;-66
2022/09/29 12:21:31;;;;;;;4.10;2.03;;;18.40;69.70;;;;;;4929001;29;20130;-67
2022/09/29 12:23:58;;;;;;;2.75;1.90;;;17.90;69.50;;;;;;4929216;29;20374;-67
2022/09/29 12:26:23;;;;;;;2.78;2.00;;;18.00;69.50;;;;;;4908960;29;20138;-66
2022/09/29 12:28:52;;;;;;;2.95;1.80;;;18.00;69.70;;;;;;4927296;29;20579;-66
2022/09/29 12:31:29;;;;;;;2.70;1.95;;;18.50;70.20;;;;;;4930122;29;20106;-65
2022/09/29 12:34:14;;;;;;;2.38;1.83;;;18.40;66.20;;;;;;4923168;29;20445;-65
2022/09/29 12:36:52;;;;;;;2.70;1.60;;;20.30;59.60;;;;;;4909988;29;20047;-66
2022/09/29 12:39:37;;;;;;;;;;;20.40;54.60;;;;;;4927303;29;20055;-67
2022/09/29 12:42:33;;;;;;;1.77;1.20;;;21.70;56.60;;;;;;4918389;29;19915;-67
2022/09/29 12:45:07;;;;;;;2.10;1.40;;;22.60;53.40;;;;;;4937145;29;20060;-67
2022/09/29 12:48:05;;;;;;;3.47;1.60;;;21.90;53.80;;;;;;4955957;28;20474;-67
2022/09/29 12:50:51;;;;;;;3.00;1.80;;;21.90;55.00;;;;;;4883568;29;20044;-68
2022/09/29 12:53:38;;;;;;;3.20;1.58;;;21.10;54.00;;;;;;4939627;29;20385;-68
2022/09/29 12:56:21;;;;;;;2.63;1.80;;;21.20;55.50;;;;;;4931468;29;20108;-68
2022/09/29 12:58:54;;;;;;;4.63;2.50;;;20.60;56.70;;;;;;4926332;29;20528;-66
2022/09/29 13:01:22;;;;;;;3.40;2.17;;;19.30;60.70;;;;;;4926531;29;20399;-65
2022/09/29 13:04:14;;;;;;;3.17;2.10;;;18.50;63.40;;;;;;4937519;29;20094;-66
2022/09/29 13:07:10;;;;;;;3.13;1.70;;;18.70;65.20;;;;;;4915910;29;20718;-64
2022/09/29 13:09:54;;;;;;;4.68;1.50;;;19.90;60.00;;;;;;4917106;29;20056;-63
2022/09/29 13:12:39;;;;;;;2.35;1.95;;;19.80;61.10;;;;;;4917838;29;20123;-64
2022/09/29 13:15:20;;;;;;;4.32;2.20;;;20.20;59.20;;;;;;4918801;29;20076;-65
2022/09/29 13:17:55;;;;;;;2.83;1.80;;;20.70;61.60;;;;;;4913904;29;20048;-64
2022/09/29 13:20:24;;;;;;;3.58;1.98;;;21.40;58.80;;;;;;4913710;29;20055;-63
2022/09/29 13:22:50;;;;;;;2.40;1.70;;;21.30;59.30;;;;;;4916662;29;20564;-62
2022/09/29 13:25:27;;;;;;;3.63;2.75;;;20.90;58.50;;;;;;4913899;29;20052;-62
2022/09/29 13:27:54;;;;;;;2.95;2.40;;;19.80;59.90;;;;;;4909684;29;20055;-64
2022/09/29 13:30:21;;;;;;;4.97;2.63;;;19.00;65.00;;;;;;4925253;29;20444;-62
2022/09/29 13:33:15;;;;;;;5.28;2.60;;;18.40;66.20;;;;;;4925473;29;20091;-62
2022/09/29 13:35:42;;;;;;;4.78;2.80;;;17.80;67.80;;;;;;4940437;29;20047;-63
2022/09/29 13:38:12;;;;;;;3.70;2.05;;;17.30;69.90;;;;;;4915161;29;20058;-63
2022/09/29 13:40:38;;;;;;;4.30;2.10;;;17.00;70.20;;;;;;4903870;29;20052;-63
2022/09/29 13:43:04;;;;;;;3.47;2.22;;;16.80;70.90;;;;;;4930989;29;20063;-63
2022/09/29 13:45:35;;;;;;;3.90;1.90;;;16.70;71.20;;;;;;4945852;29;20369;-63
2022/09/29 13:48:22;;;;;;;3.55;2.20;;;16.80;71.80;;;;;;4924180;29;20055;-64
2022/09/29 13:50:52;;;;;;;4.45;2.40;;;16.70;72.70;;;;;;4928259;29;20516;-63
2022/09/29 13:53:32;;;;;;;4.95;2.60;;;16.60;72.60;;;;;;4928163;29;20491;-63
2022/09/29 13:56:01;;;;;;;4.57;2.35;;;16.40;73.90;;;;;;4911738;29;20051;-63
2022/09/29 13:58:32;;;;;;;3.78;2.20;;;16.40;75.20;;;;;;4914359;29;20062;-63
2022/09/29 14:01:00;;;;;;;3.65;2.40;;;16.60;74.40;;;;;;4960005;28;20122;-64
2022/09/29 14:03:39;;;;;;;3.15;2.05;;;16.60;73.40;;;;;;4928655;29;20059;-63
2022/09/29 14:06:21;;;;;;;2.83;1.70;;;16.40;73.50;;;;;;4909842;29;20130;-63
2022/09/29 14:09:05;;;;;;;2.95;2.00;;;16.10;73.60;;;;;;4922176;29;20449;-63
2022/09/29 14:11:46;;;;;;;4.22;1.92;;;16.10;73.40;;;;;;4924641;29;20043;-63
2022/09/29 14:14:18;;;;;;;2.72;1.80;;;16.10;73.40;;;;;;4943794;29;20055;-64
2022/09/29 14:16:46;;;;;;;2.40;1.60;;;16.00;73.80;;;;;;4944882;29;20052;-63
2022/09/29 14:19:25;;;;;;;3.22;1.60;;;16.00;73.80;;;;;;4918330;29;20044;-63
2022/09/29 14:21:54;;;;;;;2.13;1.48;;;16.00;74.30;;;;;;4918312;29;20146;-63
2022/09/29 14:24:36;;;;;;;3.63;1.65;;;16.10;75.40;;;;;;4940358;29;20586;-63
2022/09/29 14:27:31;;;;;;;3.63;1.70;;;16.10;74.50;;;;;;4911883;29;20110;-63
2022/09/29 14:30:02;;;;;;;2.33;1.48;;;16.10;74.70;;;;;;4899121;29;20254;-63
2022/09/29 14:32:39;;;;;;;2.63;1.80;;;16.10;76.00;;;;;;4946294;29;20075;-63
2022/09/29 14:35:08;;;;;;;3.20;1.80;;;16.00;75.30;;;;;;4915867;29;20052;-63
2022/09/29 14:37:34;;;;;;;2.50;1.88;;;15.90;74.20;;;;;;4924190;29;20108;-63
2022/09/29 14:42:44;;;;;;;3.08;2.03;;;15.60;75.00;;;;;;4923053;29;20148;-63
2022/09/29 14:54:09;;;;;;;3.20;2.20;;;15.20;77.20;;;;;;4926086;29;20557;-63
2022/09/29 14:57:01;;;;;;;4.78;2.22;;;15.30;78.20;;;;;;4924108;29;20047;-63
2022/09/29 14:59:39;;;;;;;3.05;1.90;;;15.30;79.30;;;;;;4895937;29;20051;-62
2022/09/29 15:02:07;;;;;;;3.10;1.93;;;15.40;80.10;;;;;;4911203;29;20052;-64
2022/09/29 15:04:38;;;;;;;4.55;1.70;;;15.50;80.50;;;;;;4911079;29;20048;-63
2022/09/29 15:07:03;;;;;;;4.13;2.10;;;15.50;80.20;;;;;;4923747;29;20141;-63
2022/09/29 15:09:36;;;;;;;4.28;2.08;;;15.50;79.80;;;;;;4930182;29;20051;-63
2022/09/29 15:12:03;;;;;;;2.47;1.70;;;15.50;80.70;;;;;;4938801;29;20048;-63
2022/09/29 15:14:33;;;;;;;10.30;2.38;;;15.60;80.20;;;;;;4924370;29;20052;-63
2022/09/29 15:17:19;;;;;;;3.90;2.20;;;15.60;79.00;;;;;;4914127;29;20473;-64
2022/09/29 15:20:07;;;;;;;6.50;2.67;;;15.60;79.60;;;;;;4910899;29;20761;-63
2022/09/29 15:22:58;;;;;;;3.60;2.10;;;15.50;78.80;;;;;;4915144;29;20063;-63
2022/09/29 15:25:34;;;;;;;5.80;2.47;;;15.50;80.30;;;;;;4944039;29;20047;-62
2022/09/29 15:28:11;;;;;;;3.25;2.13;;;15.40;80.70;;;;;;4912095;29;20437;-63
2022/09/29 15:30:37;;;;;;;3.25;1.80;;;15.40;81.40;;;;;;4916897;29;20082;-62
2022/09/29 15:33:26;;;;;;;3.70;2.20;;;15.30;80.00;;;;;;4945913;29;20067;-63
2022/09/29 15:36:03;;;;;;;4.53;2.40;;;15.20;79.40;;;;;;4915173;29;20055;-63
2022/09/29 15:38:37;;;;;;;4.30;2.30;;;15.10;79.30;;;;;;4942488;29;20369;-63
2022/09/29 15:41:17;;;;;;;5.60;2.45;;;15.00;78.30;;;;;;4915256;29;20136;-63
2022/09/29 15:43:45;;;;;;;2.75;1.65;;;14.90;78.90;;;;;;4941417;29;20060;-63
2022/09/29 15:46:39;;;;;;;;;;;14.80;79.70;;;;;;4901670;29;20158;-63
2022/09/29 15:49:21;;;;;;;1.98;1.35;;;14.80;81.40;;;;;;4919131;29;19922;-63
2022/09/29 15:51:57;;;;;;;3.22;1.25;;;14.80;80.50;;;;;;4942748;29;20056;-63
2022/09/29 15:54:24;;;;;;;4.05;1.50;;;14.70;81.40;;;;;;4926463;29;20484;-63
2022/09/29 15:59:43;;;;;;;1.98;1.38;;;14.70;81.60;;;;;;4914875;29;20611;-63
2022/09/29 16:02:33;;;;;;;4.78;1.95;;;14.60;81.30;;;;;;4915264;29;20116;-63
2022/09/29 16:05:05;;;;;;;4.28;1.70;;;14.60;81.60;;;;;;4907108;29;20386;-63
2022/09/29 16:07:37;;;;;;;4.82;2.13;;;14.60;81.40;;;;;;4911588;29;20044;-63
2022/09/29 16:10:21;;;;;;;5.50;2.22;;;14.50;81.60;;;;;;4884241;29;20071;-63
2022/09/29 16:12:56;;;;;;;2.92;1.90;;;14.50;82.10;;;;;;4931915;29;20048;-63
2022/09/29 16:15:29;;;;;;;4.68;1.67;;;14.40;82.70;;;;;;4879952;29;20043;-63
2022/09/29 16:17:55;;;;;;;2.42;1.50;;;14.40;82.90;;;;;;4952884;28;20067;-62
2022/09/29 16:20:39;;;;;;;2.83;1.70;;;14.30;82.70;;;;;;4926355;29;20099;-63
2022/09/29 16:23:06;;;;;;;3.53;1.80;;;14.30;83.10;;;;;;4925099;29;20540;-63
2022/09/29 16:25:33;;;;;;;3.28;1.60;;;14.30;83.30;;;;;;4926249;29;20048;-63
2022/09/29 16:28:01;;;;;;;3.53;1.50;;;14.30;83.80;;;;;;4924283;29;20052;-63
2022/09/29 16:30:32;;;;;;;3.42;1.50;;;14.20;83.70;;;;;;4925036;29;20055;-63
2022/09/29 16:33:15;;;;;;;1.80;1.38;;;14.20;84.10;;;;;;4919759;29;20531;-63
2022/09/29 16:35:47;;;;;;;3.30;1.50;;;14.20;84.30;;;;;;4914784;29;20758;-67
2022/09/29 16:38:25;;;;;;;4.57;1.70;;;14.10;84.60;;;;;;4929014;29;20111;-65
2022/09/29 16:40:51;;;;;;;3.40;1.70;;;14.00;85.00;;;;;;4923254;29;20481;-65
2022/09/29 16:43:23;;;;;;;4.20;1.85;;;14.00;85.50;;;;;;4925201;29;20484;-64
2022/09/29 16:45:50;;;;;;;10.93;5.72;;;14.00;85.90;;;;;;4918801;29;20474;-64
2022/09/29 16:48:16;;;;;;;6.22;3.45;;;13.90;86.10;;;;;;4939853;29;20064;-64
2022/09/29 16:50:46;;;;;;;5.90;3.22;;;13.90;86.50;;;;;;4925741;29;20098;-65
2022/09/29 16:53:27;;;;;;;9.88;4.65;;;13.80;86.70;;;;;;4923304;29;20121;-65
2022/09/29 16:56:08;;;;;;;10.15;4.80;;;13.80;86.90;;;;;;4911260;29;20478;-63
2022/09/29 16:58:34;;;;;;;4.88;2.60;;;13.70;87.40;;;;;;4922615;29;20106;-62
2022/09/29 17:01:01;;;;;;;7.65;2.65;;;13.70;87.50;;;;;;4923462;29;20647;-62
2022/09/29 17:03:28;;;;;;;6.82;2.42;;;13.60;87.40;;;;;;4912703;29;20163;-62
2022/09/29 17:05:54;;;;;;;5.55;2.33;;;13.60;87.70;;;;;;4933739;29;20067;-62
2022/09/29 17:08:30;;;;;;;4.57;2.58;;;13.50;88.20;;;;;;4925861;29;20082;-62
2022/09/29 17:10:56;;;;;;;4.78;2.65;;;13.50;88.50;;;;;;4909349;29;20482;-63
2022/09/29 17:13:22;;;;;;;5.82;2.85;;;13.50;88.40;;;;;;4908100;29;20048;-63
2022/09/29 17:15:50;;;;;;;4.30;2.65;;;13.50;89.00;;;;;;4923554;29;20070;-63
2022/09/29 17:18:16;;;;;;;5.70;3.13;;;13.40;90.00;;;;;;4923307;29;20135;-63
2022/09/29 17:20:42;;;;;;;6.82;2.95;;;13.40;90.00;;;;;;4909789;29;20075;-63
2022/09/29 17:23:09;;;;;;;6.60;2.90;;;13.40;89.90;;;;;;4925475;29;20059;-63
2022/09/29 17:25:35;;;;;;;6.63;2.97;;;13.40;90.40;;;;;;4925684;29;20077;-62
2022/09/29 17:28:10;;;;;;;5.75;3.03;;;13.20;91.00;;;;;;4911116;29;20448;-63
2022/09/29 17:30:36;;;;;;;6.10;2.67;;;13.10;91.30;;;;;;4899024;29;20386;-63
2022/09/29 17:33:02;;;;;;;4.32;2.58;;;13.10;92.30;;;;;;4928488;29;20058;-63
2022/09/29 17:35:30;;;;;;;7.18;2.90;;;13.00;92.10;;;;;;4941086;29;20047;-62
2022/09/29 17:37:56;;;;;;;4.88;1.98;;;13.00;92.40;;;;;;4929762;29;20138;-63
2022/09/29 17:40:33;;;;;;;4.50;2.42;;;12.90;92.90;;;;;;4909240;29;20493;-63
2022/09/29 17:42:59;;;;;;;4.00;2.40;;;12.80;93.20;;;;;;4927242;29;20424;-62
2022/09/29 17:45:28;;;;;;;5.70;2.00;;;12.70;94.10;;;;;;4928825;29;20164;-62
2022/09/29 17:47:54;;;;;;;3.00;1.73;;;12.60;95.00;;;;;;4925746;29;20110;-62
2022/09/29 17:50:39;;;;;;;5.85;1.98;;;12.50;95.50;;;;;;4905990;29;20473;-63
2022/09/29 17:53:05;;;;;;;5.13;1.88;;;12.40;95.20;;;;;;4929573;29;20146;-62
2022/09/29 17:55:31;;;;;;;5.88;2.30;;;12.40;95.20;;;;;;4886367;29;20154;-63
2022/09/29 17:57:57;;;;;;;4.90;2.40;;;12.40;95.20;;;;;;4928924;29;20047;-62
2022/09/29 18:00:30;;;;;;;5.95;2.55;;;12.40;94.80;;;;;;4916387;29;20044;-63
2022/09/29 18:02:56;;;;;;;6.55;2.85;;;12.40;95.20;;;;;;4918627;29;20054;-63
2022/09/29 18:05:26;;;;;;;4.03;2.03;;;12.30;95.10;;;;;;4927965;29;20040;-62
2022/09/29 18:07:52;;;;;;;3.30;1.98;;;12.20;95.20;;;;;;4913067;29;20114;-62
2022/09/29 18:10:27;;;;;;;3.50;1.73;;;12.20;95.00;;;;;;4882719;29;20568;-62
2022/09/29 18:12:53;;;;;;;3.45;2.10;;;12.20;95.00;;;;;;4913503;29;20077;-62
2022/09/29 18:15:19;;;;;;;4.82;2.08;;;12.10;95.40;;;;;;4930510;29;20374;-63
2022/09/29 18:17:46;;;;;;;6.50;2.35;;;12.10;94.90;;;;;;4930746;29;20394;-62
2022/09/29 18:20:19;;;;;;;3.65;2.17;;;12.00;94.90;;;;;;4899294;29;20044;-63
2022/09/29 18:22:46;;;;;;;4.45;2.05;;;12.00;94.70;;;;;;4922784;29;20070;-62
2022/09/29 18:25:17;;;;;;;4.80;1.90;;;11.90;94.90;;;;;;4914127;29;20133;-62
2022/09/29 18:27:53;;;;;;;3.67;1.95;;;11.90;94.70;;;;;;4914413;29;20048;-62
2022/09/29 18:30:21;;;;;;;4.90;2.00;;;11.90;94.70;;;;;;4947433;28;20075;-63
2022/09/29 18:32:51;;;;;;;5.88;1.77;;;11.90;94.70;;;;;;4915923;29;20050;-63
2022/09/29 18:35:25;;;;;;;4.18;2.20;;;11.80;94.90;;;;;;4929201;29;20052;-62
2022/09/29 18:37:51;;;;;;;3.42;2.00;;;11.70;95.10;;;;;;4916700;29;20587;-63
2022/09/29 18:40:17;;;;;;;3.47;2.50;;;11.70;95.00;;;;;;4927734;29;20759;-63
2022/09/29 18:42:44;;;;;;;6.90;2.30;;;11.70;95.10;;;;;;4911413;29;20130;-63
2022/09/29 18:45:21;;;;;;;4.75;2.47;;;11.60;95.50;;;;;;4940951;29;20226;-63
2022/09/29 18:47:52;;;;;;;4.88;2.40;;;11.60;95.20;;;;;;4924789;29;20052;-63
2022/09/29 18:50:28;;;;;;;4.95;2.40;;;11.50;95.50;;;;;;4920921;29;20146;-63
2022/09/29 18:52:54;;;;;;;5.10;2.45;;;11.40;95.60;;;;;;4941687;28;20048;-63
2022/09/29 18:55:22;;;;;;;4.28;2.55;;;11.40;95.70;;;;;;4927857;29;20418;-63
2022/09/29 18:57:52;;;;;;;5.97;3.05;;;11.30;95.90;;;;;;4928973;29;20118;-63
2022/09/29 19:00:21;;;;;;;5.32;2.90;;;11.30;96.00;;;;;;4903843;29;20488;-63
2022/09/29 19:02:47;;;;;;;6.13;3.50;;;11.30;96.40;;;;;;4927708;29;20086;-63
2022/09/29 19:05:17;;;;;;;6.55;3.92;;;11.20;96.40;;;;;;4928484;29;20680;-63
2022/09/29 19:07:47;;;;;;;5.03;3.72;;;11.10;96.80;;;;;;4888494;29;20040;-62
2022/09/29 19:10:14;;;;;;;8.25;5.25;;;11.10;96.80;;;;;;4946700;29;20052;-62